sensor_id;sensor_type;location;lat;lon;timestamp;pressure;altitude;pressure_sealevel;temperature;humidity
57376;BME280;44805;45.048;5.062;2023-02-04T00:46:49;101241.22;;;4.70;78.15
57376;BME280;44805;45.048;5.062;2023-02-04T00:49:14;101291.41;;;4.94;77.84
57376;BME280;44805;45.048;5.062;2023-02-04T00:51:40;101325.06;;;5.18;77.86
57376;BME280;44805;45.048;5.062;2023-02-04T00:54:10;101329.13;;;5.23;78.21
57376;BME280;44805;45.048;5.062;2023-02-04T00:56:36;101281.41;;;5.03;77.34
57376;BME280;44805;45.048;5.062;2023-02-04T00:59:02;101277.50;;;4.94;77.98
57376;BME280;44805;45.048;5.062;2023-02-04T01:01:28;101220.09;;;4.57;78.31
57376;BME280;44805;45.048;5.062;2023-02-04T01:07:15;101319.22;;;5.30;79.18
57376;BME280;44805;45.048;5.062;2023-02-04T01:09:40;101254.28;;;4.88;78.96
57376;BME280;44805;45.048;5.062;2023-02-04T01:12:06;101280.75;;;4.99;79.20
57376;BME280;44805;45.048;5.062;2023-02-04T01:14:31;101237.81;;;4.87;78.98
57376;BME280;44805;45.048;5.062;2023-02-04T01:16:57;101259.31;;;5.10;78.22
57376;BME280;44805;45.048;5.062;2023-02-04T01:22:28;101299.91;;;5.34;79.19
57376;BME280;44805;45.048;5.062;2023-02-04T01:24:54;101327.69;;;5.35;79.63
57376;BME280;44805;45.048;5.062;2023-02-04T01:27:19;101326.59;;;5.22;79.10
57376;BME280;44805;45.048;5.062;2023-02-04T01:29:45;101270.31;;;4.80;79.53
57376;BME280;44805;45.048;5.062;2023-02-04T01:32:10;101291.97;;;4.82;80.03
57376;BME280;44805;45.048;5.062;2023-02-04T01:34:35;101263.72;;;4.73;80.21
57376;BME280;44805;45.048;5.062;2023-02-04T01:37:01;101272.47;;;4.72;79.91
57376;BME280;44805;45.048;5.062;2023-02-04T01:39:26;101266.94;;;4.61;80.50
57376;BME280;44805;45.048;5.062;2023-02-04T01:41:52;101282.97;;;4.70;80.94
57376;BME280;44805;45.048;5.062;2023-02-04T01:44:17;101311.06;;;5.19;81.31
57376;BME280;44805;45.048;5.062;2023-02-04T01:46:43;101300.19;;;5.46;80.39
57376;BME280;44805;45.048;5.062;2023-02-04T01:49:28;101342.13;;;5.95;79.46
57376;BME280;44805;45.048;5.062;2023-02-04T01:51:54;101275.13;;;5.59;78.77
57376;BME280;44805;45.048;5.062;2023-02-04T01:54:19;101229.13;;;5.39;79.04
57376;BME280;44805;45.048;5.062;2023-02-04T01:56:48;101259.94;;;5.50;79.33
57376;BME280;44805;45.048;5.062;2023-02-04T01:59:16;101233.41;;;5.57;78.91
57376;BME280;44805;45.048;5.062;2023-02-04T02:01:48;101277.47;;;5.81;78.39
57376;BME280;44805;45.048;5.062;2023-02-04T02:04:28;101280.75;;;6.02;78.49
57376;BME280;44805;45.048;5.062;2023-02-04T02:06:56;101330.06;;;6.25;78.62
57376;BME280;44805;45.048;5.062;2023-02-04T02:09:24;101232.28;;;5.79;78.52
57376;BME280;44805;45.048;5.062;2023-02-04T02:11:50;101244.69;;;5.91;78.21
57376;BME280;44805;45.048;5.062;2023-02-04T02:14:15;101225.88;;;5.84;77.80
57376;BME280;44805;45.048;5.062;2023-02-04T02:16:41;101215.13;;;5.57;78.12
57376;BME280;44805;45.048;5.062;2023-02-04T02:22:36;101269.06;;;5.92;79.42
57376;BME280;44805;45.048;5.062;2023-02-04T02:25:10;101307.94;;;6.15;78.38
57376;BME280;44805;45.048;5.062;2023-02-04T02:27:35;101319.47;;;6.28;79.32
57376;BME280;44805;45.048;5.062;2023-02-04T02:30:01;101210.34;;;5.65;78.93
57376;BME280;44805;45.048;5.062;2023-02-04T02:32:26;101291.56;;;6.12;79.65
57376;BME280;44805;45.048;5.062;2023-02-04T02:38:15;101262.25;;;5.72;78.03
57376;BME280;44805;45.048;5.062;2023-02-04T02:40:41;101270.84;;;5.40;79.69
57376;BME280;44805;45.048;5.062;2023-02-04T02:43:09;101293.19;;;5.46;80.60
57376;BME280;44805;45.048;5.062;2023-02-04T02:45:39;101205.25;;;4.77;79.99
57376;BME280;44805;45.048;5.062;2023-02-04T02:48:20;101259.31;;;5.10;80.02
57376;BME280;44805;45.048;5.062;2023-02-04T02:50:46;101259.53;;;5.05;81.16
57376;BME280;44805;45.048;5.062;2023-02-04T02:53:13;101297.88;;;5.22;81.08
57376;BME280;44805;45.048;5.062;2023-02-04T02:55:40;101260.66;;;4.82;81.90
57376;BME280;44805;45.048;5.062;2023-02-04T02:58:14;101199.84;;;4.45;82.15
57376;BME280;44805;45.048;5.062;2023-02-04T03:00:40;101269.38;;;4.64;82.59
57376;BME280;44805;45.048;5.062;2023-02-04T03:03:22;101156.13;;;3.95;82.78
57376;BME280;44805;45.048;5.062;2023-02-04T03:05:51;101225.50;;;4.35;82.65
57376;BME280;44805;45.048;5.062;2023-02-04T03:08:19;101318.84;;;4.84;83.90
57376;BME280;44805;45.048;5.062;2023-02-04T03:10:45;101301.56;;;4.82;82.84
57376;BME280;44805;45.048;5.062;2023-02-04T03:13:12;101219.44;;;4.16;83.16
57376;BME280;44805;45.048;5.062;2023-02-04T03:15:39;101303.34;;;4.62;83.29
57376;BME280;44805;45.048;5.062;2023-02-04T03:24:36;101247.75;;;4.24;84.07
57376;BME280;44805;45.048;5.062;2023-02-04T03:27:02;101264.72;;;4.32;84.32
57376;BME280;44805;45.048;5.062;2023-02-04T03:29:28;101246.66;;;4.10;83.80
57376;BME280;44805;45.048;5.062;2023-02-04T03:31:53;101166.63;;;3.75;83.91
57376;BME280;44805;45.048;5.062;2023-02-04T03:37:41;101270.44;;;4.22;85.41
57376;BME280;44805;45.048;5.062;2023-02-04T03:40:08;101221.53;;;3.89;84.37
57376;BME280;44805;45.048;5.062;2023-02-04T03:42:33;101280.69;;;4.07;84.28
57376;BME280;44805;45.048;5.062;2023-02-04T03:44:59;101270.88;;;4.12;85.29
57376;BME280;44805;45.048;5.062;2023-02-04T03:47:24;101152.78;;;3.35;85.98
57376;BME280;44805;45.048;5.062;2023-02-04T03:49:50;101277.63;;;4.17;85.94
57376;BME280;44805;45.048;5.062;2023-02-04T03:52:15;101223.09;;;3.93;85.09
57376;BME280;44805;45.048;5.062;2023-02-04T03:54:40;101180.06;;;3.65;84.98
57376;BME280;44805;45.048;5.062;2023-02-04T03:57:06;101194.09;;;3.82;85.91
57376;BME280;44805;45.048;5.062;2023-02-04T03:59:32;101222.13;;;3.96;85.92
57376;BME280;44805;45.048;5.062;2023-02-04T04:01:57;101253.13;;;4.21;85.74
57376;BME280;44805;45.048;5.062;2023-02-04T04:04:24;101233.13;;;4.21;85.45
57376;BME280;44805;45.048;5.062;2023-02-04T04:06:49;101175.91;;;3.80;84.73
57376;BME280;44805;45.048;5.062;2023-02-04T04:09:15;101144.91;;;3.55;85.85
57376;BME280;44805;45.048;5.062;2023-02-04T04:11:40;101165.22;;;3.67;86.44
57376;BME280;44805;45.048;5.062;2023-02-04T04:14:06;101225.31;;;4.02;87.41
57376;BME280;44805;45.048;5.062;2023-02-04T04:16:31;101227.28;;;3.97;86.20
57376;BME280;44805;45.048;5.062;2023-02-04T04:22:27;101260.56;;;4.09;86.32
57376;BME280;44805;45.048;5.062;2023-02-04T04:24:53;101302.88;;;4.35;86.77
57376;BME280;44805;45.048;5.062;2023-02-04T04:27:19;101191.66;;;3.58;86.13
57376;BME280;44805;45.048;5.062;2023-02-04T04:29:44;101264.66;;;3.96;87.68
57376;BME280;44805;45.048;5.062;2023-02-04T04:32:09;101228.72;;;3.84;86.98
57376;BME280;44805;45.048;5.062;2023-02-04T04:34:35;101195.63;;;3.67;86.74
57376;BME280;44805;45.048;5.062;2023-02-04T04:37:01;101192.38;;;3.62;86.69
57376;BME280;44805;45.048;5.062;2023-02-04T04:39:26;101243.94;;;3.93;87.23
57376;BME280;44805;45.048;5.062;2023-02-04T04:41:52;101316.22;;;4.48;87.06
57376;BME280;44805;45.048;5.062;2023-02-04T04:44:17;101220.78;;;3.87;87.30
57376;BME280;44805;45.048;5.062;2023-02-04T04:46:42;101265.69;;;4.12;86.59
57376;BME280;44805;45.048;5.062;2023-02-04T04:49:08;101294.41;;;4.30;88.01
57376;BME280;44805;45.048;5.062;2023-02-04T04:51:33;101275.50;;;4.25;86.30
57376;BME280;44805;45.048;5.062;2023-02-04T04:53:59;101275.47;;;4.26;86.18
57376;BME280;44805;45.048;5.062;2023-02-04T04:56:24;101322.69;;;4.58;85.68
57376;BME280;44805;45.048;5.062;2023-02-04T04:58:50;101312.72;;;4.47;86.97
57376;BME280;44805;45.048;5.062;2023-02-04T05:01:15;101161.03;;;3.63;86.28
57376;BME280;44805;45.048;5.062;2023-02-04T05:07:40;101315.06;;;4.53;87.20
57376;BME280;44805;45.048;5.062;2023-02-04T05:10:06;101308.66;;;4.42;87.62
57376;BME280;44805;45.048;5.062;2023-02-04T05:12:31;101293.00;;;4.42;87.77
57376;BME280;44805;45.048;5.062;2023-02-04T05:14:57;101229.88;;;3.97;86.89
57376;BME280;44805;45.048;5.062;2023-02-04T05:17:22;101265.53;;;4.16;87.91
57376;BME280;44805;45.048;5.062;2023-02-04T05:20:19;101315.78;;;4.57;86.71
57376;BME280;44805;45.048;5.062;2023-02-04T05:22:44;101308.78;;;4.57;87.20
57376;BME280;44805;45.048;5.062;2023-02-04T05:25:10;101170.28;;;3.70;87.32
57376;BME280;44805;45.048;5.062;2023-02-04T05:27:35;101307.41;;;4.50;87.68
57376;BME280;44805;45.048;5.062;2023-02-04T05:30:01;101254.13;;;4.18;87.17
57376;BME280;44805;45.048;5.062;2023-02-04T05:32:26;101188.31;;;3.94;86.71
57376;BME280;44805;45.048;5.062;2023-02-04T05:38:13;101242.00;;;4.36;85.64
57376;BME280;44805;45.048;5.062;2023-02-04T05:40:39;101210.13;;;4.29;85.90
57376;BME280;44805;45.048;5.062;2023-02-04T05:43:04;101240.97;;;4.57;85.55
57376;BME280;44805;45.048;5.062;2023-02-04T05:45:30;101216.91;;;4.33;86.39
57376;BME280;44805;45.048;5.062;2023-02-04T05:47:55;101283.53;;;4.77;86.23
57376;BME280;44805;45.048;5.062;2023-02-04T05:54:04;101167.78;;;4.24;85.47
57376;BME280;44805;45.048;5.062;2023-02-04T06:07:23;101329.69;;;5.30;84.36
57376;BME280;44805;45.048;5.062;2023-02-04T06:44:02;101232.13;;;5.14;82.76
57376;BME280;44805;45.048;5.062;2023-02-04T08:07:59;101388.72;;;7.18;97.65
57376;BME280;44805;45.048;5.062;2023-02-04T08:16:34;101298.53;;;6.60;98.09
57376;BME280;44805;45.048;5.062;2023-02-04T10:12:00;101303.72;;;8.25;86.50
57376;BME280;44805;45.048;5.062;2023-02-04T10:14:53;101312.63;;;8.09;87.01
57376;BME280;44805;45.048;5.062;2023-02-04T10:18:34;101435.13;;;9.08;86.46
57376;BME280;44805;45.048;5.062;2023-02-04T13:04:04;101289.81;;;10.23;81.28
57376;BME280;44805;45.048;5.062;2023-02-04T13:13:20;101164.34;;;9.61;81.66
57376;BME280;44805;45.048;5.062;2023-02-04T13:16:37;101118.09;;;9.46;81.97
57376;BME280;44805;45.048;5.062;2023-02-04T13:19:50;101157.59;;;9.83;80.95
57376;BME280;44805;45.048;5.062;2023-02-04T13:23:16;101170.00;;;9.81;81.47
57376;BME280;44805;45.048;5.062;2023-02-04T13:25:58;101217.09;;;10.09;81.59
57376;BME280;44805;45.048;5.062;2023-02-04T13:28:24;101119.78;;;9.47;81.70
57376;BME280;44805;45.048;5.062;2023-02-04T13:30:51;101109.06;;;9.50;82.14
57376;BME280;44805;45.048;5.062;2023-02-04T13:33:55;101154.19;;;9.93;80.97
57376;BME280;44805;45.048;5.062;2023-02-04T13:39:45;101106.09;;;9.67;81.07
57376;BME280;44805;45.048;5.062;2023-02-04T13:42:33;101229.09;;;10.13;82.53
57376;BME280;44805;45.048;5.062;2023-02-04T13:45:42;101165.78;;;9.91;82.91
57376;BME280;44805;45.048;5.062;2023-02-04T14:00:19;101083.84;;;9.34;82.77
57376;BME280;44805;45.048;5.062;2023-02-04T14:03:07;101243.38;;;10.35;83.39
57376;BME280;44805;45.048;5.062;2023-02-04T14:09:34;101237.38;;;10.33;83.41
57376;BME280;44805;45.048;5.062;2023-02-04T14:12:06;101122.47;;;9.71;83.07
57376;BME280;44805;45.048;5.062;2023-02-04T14:14:37;101119.97;;;9.69;83.31
57376;BME280;44805;45.048;5.062;2023-02-04T14:17:06;101095.19;;;9.48;82.49
57376;BME280;44805;45.048;5.062;2023-02-04T14:25:49;101132.38;;;10.04;82.94
57376;BME280;44805;45.048;5.062;2023-02-04T14:29:02;101095.25;;;9.96;82.01
57376;BME280;44805;45.048;5.062;2023-02-04T14:32:36;101191.56;;;10.59;81.55
57376;BME280;44805;45.048;5.062;2023-02-04T14:35:30;101126.50;;;10.25;81.50
57376;BME280;44805;45.048;5.062;2023-02-04T14:38:20;101135.66;;;10.32;81.24
57376;BME280;44805;45.048;5.062;2023-02-04T14:40:48;101100.78;;;10.04;82.04
57376;BME280;44805;45.048;5.062;2023-02-04T14:43:15;101147.75;;;10.34;81.23
57376;BME280;44805;45.048;5.062;2023-02-04T14:45:41;101220.13;;;10.77;81.34
57376;BME280;44805;45.048;5.062;2023-02-04T14:48:10;101070.66;;;9.84;81.16
57376;BME280;44805;45.048;5.062;2023-02-04T14:54:15;101222.53;;;10.80;80.55
57376;BME280;44805;45.048;5.062;2023-02-04T14:57:32;101136.81;;;10.28;81.09
57376;BME280;44805;45.048;5.062;2023-02-04T15:00:25;101225.00;;;10.70;81.04
57376;BME280;44805;45.048;5.062;2023-02-04T15:05:57;101090.22;;;9.93;80.87
57376;BME280;44805;45.048;5.062;2023-02-04T15:27:00;101153.09;;;10.09;82.61
57376;BME280;44805;45.048;5.062;2023-02-04T15:43:55;101094.88;;;9.40;84.20
57376;BME280;44805;45.048;5.062;2023-02-04T15:47:25;101083.63;;;9.38;85.04
57376;BME280;44805;45.048;5.062;2023-02-04T16:01:21;101180.53;;;9.81;85.10
57376;BME280;44805;45.048;5.062;2023-02-04T16:03:48;101169.41;;;9.64;85.08
57376;BME280;44805;45.048;5.062;2023-02-04T16:06:15;101104.97;;;9.20;85.49
57376;BME280;44805;45.048;5.062;2023-02-04T16:08:40;101091.84;;;9.20;85.80
57376;BME280;44805;45.048;5.062;2023-02-04T16:11:34;101238.59;;;10.03;85.29
57376;BME280;44805;45.048;5.062;2023-02-04T16:15:19;101245.50;;;10.04;84.67
57376;BME280;44805;45.048;5.062;2023-02-04T16:21:15;101243.63;;;10.06;84.53
57376;BME280;44805;45.048;5.062;2023-02-04T16:24:37;101226.00;;;9.83;85.61
57376;BME280;44805;45.048;5.062;2023-02-04T16:27:10;101244.41;;;9.83;86.41
57376;BME280;44805;45.048;5.062;2023-02-04T16:29:36;101216.53;;;9.67;85.43
57376;BME280;44805;45.048;5.062;2023-02-04T16:32:39;101266.47;;;10.06;85.23
57376;BME280;44805;45.048;5.062;2023-02-04T16:35:07;101127.38;;;9.13;85.62
57376;BME280;44805;45.048;5.062;2023-02-04T16:40:56;101215.88;;;9.76;85.25
57376;BME280;44805;45.048;5.062;2023-02-04T16:44:19;101273.53;;;9.92;86.01
57376;BME280;44805;45.048;5.062;2023-02-04T16:50:02;101240.72;;;9.85;84.37
57376;BME280;44805;45.048;5.062;2023-02-04T16:56:05;101120.22;;;9.02;85.33
57376;BME280;44805;45.048;5.062;2023-02-04T16:59:13;101201.28;;;9.47;84.86
57376;BME280;44805;45.048;5.062;2023-02-04T17:01:53;101134.09;;;9.04;84.59
57376;BME280;44805;45.048;5.062;2023-02-04T17:04:25;101130.50;;;8.80;86.12
57376;BME280;44805;45.048;5.062;2023-02-04T17:11:24;101274.78;;;9.74;85.95
57376;BME280;44805;45.048;5.062;2023-02-04T17:25:55;101168.34;;;8.90;85.50
57376;BME280;44805;45.048;5.062;2023-02-04T19:25:46;101239.97;;;8.38;86.57
57376;BME280;44805;45.048;5.062;2023-02-04T19:28:27;101140.88;;;7.87;86.13
57376;BME280;44805;45.048;5.062;2023-02-04T19:31:06;101258.09;;;8.42;86.82
57376;BME280;44805;45.048;5.062;2023-02-04T19:33:39;101315.38;;;8.77;86.89
57376;BME280;44805;45.048;5.062;2023-02-04T19:36:34;101316.81;;;8.68;88.10
57376;BME280;44805;45.048;5.062;2023-02-04T19:39:38;101322.13;;;8.81;86.33
57376;BME280;44805;45.048;5.062;2023-02-04T19:42:33;101319.53;;;8.67;88.73
57376;BME280;44805;45.048;5.062;2023-02-04T19:45:00;101242.53;;;8.11;88.30
57376;BME280;44805;45.048;5.062;2023-02-04T19:47:42;101186.47;;;7.70;88.31
57376;BME280;44805;45.048;5.062;2023-02-04T19:50:28;101112.47;;;7.38;87.46
57376;BME280;44805;45.048;5.062;2023-02-04T19:53:15;101136.69;;;7.42;88.45
57376;BME280;44805;45.048;5.062;2023-02-04T19:55:50;101147.06;;;7.57;88.49
57376;BME280;44805;45.048;5.062;2023-02-04T19:58:37;101324.63;;;8.56;89.38
57376;BME280;44805;45.048;5.062;2023-02-04T20:01:18;101147.84;;;7.31;89.35
57376;BME280;44805;45.048;5.062;2023-02-04T20:04:18;101264.03;;;7.89;89.70
57376;BME280;44805;45.048;5.062;2023-02-04T20:10:25;101323.13;;;8.37;90.62
57376;BME280;44805;45.048;5.062;2023-02-04T20:13:24;101152.81;;;7.35;89.84
57376;BME280;44805;45.048;5.062;2023-02-04T20:15:54;101253.06;;;7.96;90.12
57376;BME280;44805;45.048;5.062;2023-02-04T20:18:22;101273.84;;;7.99;89.89
57376;BME280;44805;45.048;5.062;2023-02-04T20:20:50;101166.53;;;7.25;91.41
57376;BME280;44805;45.048;5.062;2023-02-04T20:23:27;101145.31;;;7.15;90.69
57376;BME280;44805;45.048;5.062;2023-02-04T20:25:52;101160.91;;;7.16;90.96
57376;BME280;44805;45.048;5.062;2023-02-04T20:28:39;101167.94;;;7.16;90.58
57376;BME280;44805;45.048;5.062;2023-02-04T20:31:24;101337.84;;;8.25;90.38
57376;BME280;44805;45.048;5.062;2023-02-04T20:33:53;101156.03;;;7.10;90.83
57376;BME280;44805;45.048;5.062;2023-02-04T20:36:37;101166.88;;;7.04;92.01
